createdAt,value
2022-12-31T00:02:00.846Z,19.94
2022-12-31T00:04:28.376Z,19.95
2022-12-31T00:06:57.072Z,19.97
2022-12-31T00:09:24.480Z,19.95
2022-12-31T00:11:51.907Z,19.95
2022-12-31T00:14:19.327Z,19.96
2022-12-31T00:16:46.782Z,19.94
2022-12-31T00:19:14.245Z,19.94
2022-12-31T00:21:41.652Z,19.93
2022-12-31T00:24:11.408Z,19.95
2022-12-31T00:26:39.261Z,19.94
2022-12-31T00:29:06.764Z,19.91
2022-12-31T00:31:36.017Z,19.90
2022-12-31T00:34:03.596Z,19.86
2022-12-31T00:36:32.212Z,19.90
2022-12-31T00:39:00.456Z,19.88
2022-12-31T00:41:29.345Z,19.87
2022-12-31T00:43:57.347Z,19.89
2022-12-31T00:46:25.009Z,19.89
2022-12-31T00:48:52.565Z,19.89
2022-12-31T00:51:20.866Z,19.87
2022-12-31T00:53:48.269Z,19.86
2022-12-31T00:56:16.356Z,19.85
2022-12-31T00:58:45.040Z,19.84
2022-12-31T01:01:13.067Z,19.86
2022-12-31T01:03:40.582Z,19.85
2022-12-31T01:06:08.421Z,19.85
2022-12-31T01:08:35.833Z,19.86
2022-12-31T01:11:22.258Z,19.85
2022-12-31T01:13:52.995Z,19.85
2022-12-31T01:16:21.259Z,19.87
2022-12-31T01:18:48.723Z,19.86
2022-12-31T01:21:16.294Z,19.85
2022-12-31T01:23:43.702Z,19.87
2022-12-31T01:26:12.963Z,19.85
2022-12-31T01:28:40.399Z,19.85
2022-12-31T01:31:10.085Z,19.84
2022-12-31T01:33:37.529Z,19.84
2022-12-31T01:36:05.518Z,19.84
2022-12-31T01:38:32.926Z,19.83
2022-12-31T01:41:00.361Z,19.84
2022-12-31T01:43:43.576Z,19.82
2022-12-31T01:46:12.624Z,19.79
2022-12-31T01:48:40.090Z,19.72
2022-12-31T01:51:07.671Z,19.72
2022-12-31T01:53:35.914Z,19.69
2022-12-31T01:56:05.598Z,19.67
2022-12-31T01:58:36.156Z,19.64
2022-12-31T02:01:03.599Z,19.64
2022-12-31T02:03:32.294Z,19.65
2022-12-31T02:06:02.375Z,19.65
2022-12-31T02:08:29.799Z,19.67
2022-12-31T02:10:57.254Z,19.65
2022-12-31T02:13:24.783Z,19.77
2022-12-31T02:15:54.575Z,19.83
2022-12-31T02:18:27.761Z,19.88
2022-12-31T02:21:20.354Z,19.94
2022-12-31T02:24:10.279Z,19.89
2022-12-31T02:26:47.618Z,19.91
2022-12-31T02:29:31.048Z,19.89
2022-12-31T02:32:00.798Z,19.86
2022-12-31T02:34:29.202Z,19.89
2022-12-31T02:36:56.659Z,19.89
2022-12-31T02:39:24.062Z,19.90
2022-12-31T02:41:51.563Z,19.89
2022-12-31T02:44:23.069Z,19.96
2022-12-31T02:46:52.438Z,19.94
2022-12-31T02:49:22.120Z,19.91
2022-12-31T02:51:52.110Z,19.88
2022-12-31T02:54:23.415Z,19.90
2022-12-31T02:56:54.370Z,19.88
2022-12-31T02:59:40.319Z,19.89
2022-12-31T03:02:19.508Z,19.90
2022-12-31T03:04:52.369Z,19.89
2022-12-31T03:07:37.439Z,19.90
2022-12-31T03:10:32.101Z,19.90
2022-12-31T03:13:33.755Z,19.90
2022-12-31T03:16:12.467Z,19.89
2022-12-31T03:18:55.877Z,19.92
2022-12-31T03:22:18.129Z,19.87
2022-12-31T03:28:41.975Z,19.88
2022-12-31T03:31:12.750Z,19.86
2022-12-31T03:33:41.724Z,19.88
2022-12-31T03:36:28.734Z,19.88
2022-12-31T03:39:43.360Z,19.90
2022-12-31T03:42:42.826Z,19.91
2022-12-31T03:46:03.061Z,19.86
2022-12-31T03:48:31.006Z,19.90
2022-12-31T03:50:58.508Z,19.93
2022-12-31T03:53:27.312Z,19.94
2022-12-31T03:55:56.099Z,19.93
2022-12-31T03:58:23.573Z,19.94
2022-12-31T04:00:51.139Z,19.93
2022-12-31T04:03:18.809Z,19.91
2022-12-31T04:05:46.318Z,19.93
2022-12-31T04:08:13.771Z,19.90
2022-12-31T04:10:41.200Z,19.92
2022-12-31T04:13:09.923Z,19.94
2022-12-31T04:15:37.349Z,19.98
2022-12-31T04:18:04.855Z,19.94
2022-12-31T04:20:32.291Z,19.96
2022-12-31T04:22:59.739Z,19.99
2022-12-31T04:25:27.221Z,19.95
2022-12-31T04:27:54.696Z,20.00
2022-12-31T04:30:23.408Z,19.99
2022-12-31T04:32:50.869Z,20.01
2022-12-31T04:35:18.385Z,20.03
2022-12-31T04:37:45.813Z,20.02
2022-12-31T04:40:13.494Z,20.02
2022-12-31T04:42:40.957Z,19.99
2022-12-31T04:45:09.268Z,20.00
2022-12-31T04:47:38.027Z,20.00
2022-12-31T04:50:06.250Z,20.00
2022-12-31T04:52:42.305Z,19.99
2022-12-31T04:55:10.433Z,20.02
2022-12-31T04:57:37.867Z,20.01
2022-12-31T05:00:07.941Z,20.01
2022-12-31T05:02:35.466Z,19.99
2022-12-31T05:05:04.474Z,20.01
2022-12-31T05:07:31.896Z,19.98
2022-12-31T05:09:59.335Z,20.01
2022-12-31T05:12:26.777Z,20.05
2022-12-31T05:14:54.219Z,20.03
2022-12-31T05:17:21.659Z,20.03
2022-12-31T05:19:51.060Z,20.02
2022-12-31T05:22:30.759Z,20.04
2022-12-31T05:25:06.503Z,20.05
2022-12-31T05:27:34.148Z,20.03
2022-12-31T05:30:01.577Z,20.02
2022-12-31T05:32:40.683Z,20.02
2022-12-31T05:35:08.803Z,20.02
2022-12-31T05:37:37.648Z,20.02
2022-12-31T05:40:06.130Z,20.02
2022-12-31T05:42:33.659Z,20.02
2022-12-31T05:45:01.191Z,20.00
2022-12-31T05:47:28.736Z,20.02
2022-12-31T05:49:56.309Z,20.01
2022-12-31T05:52:23.764Z,20.00
2022-12-31T05:54:54.067Z,20.01
2022-12-31T05:57:21.512Z,20.01
2022-12-31T05:59:48.952Z,20.01
2022-12-31T06:02:16.432Z,20.03
2022-12-31T06:04:43.908Z,20.03
2022-12-31T06:07:11.386Z,20.05
2022-12-31T06:09:38.863Z,20.05
2022-12-31T06:12:07.973Z,20.07
2022-12-31T06:14:36.275Z,20.07
2022-12-31T06:17:05.961Z,20.07
2022-12-31T06:19:33.407Z,20.06
2022-12-31T06:22:00.845Z,20.06
2022-12-31T06:24:28.282Z,20.07
2022-12-31T06:26:55.767Z,20.08
2022-12-31T06:29:24.498Z,20.09
2022-12-31T06:31:51.983Z,20.09
2022-12-31T06:34:19.527Z,20.13
2022-12-31T06:36:46.965Z,20.10
2022-12-31T06:39:14.435Z,20.12
2022-12-31T06:41:41.867Z,20.09
2022-12-31T06:44:09.314Z,20.13
2022-12-31T06:46:38.117Z,20.11
2022-12-31T06:49:05.571Z,20.14
2022-12-31T06:51:32.995Z,20.12
2022-12-31T06:54:00.487Z,20.13
2022-12-31T06:56:34.088Z,20.11
2022-12-31T06:59:02.499Z,20.13
2022-12-31T07:01:44.109Z,20.13
2022-12-31T07:04:30.340Z,20.12
2022-12-31T07:07:00.224Z,20.13
2022-12-31T07:09:31.173Z,20.10
2022-12-31T07:12:03.473Z,20.09
2022-12-31T07:14:33.451Z,20.08
2022-12-31T07:17:05.947Z,20.08
2022-12-31T07:19:39.882Z,20.03
2022-12-31T07:22:10.930Z,20.05
2022-12-31T07:24:38.920Z,20.06
2022-12-31T07:27:12.807Z,20.02
2022-12-31T07:29:50.788Z,20.02
2022-12-31T07:32:24.682Z,20.05
2022-12-31T07:34:56.730Z,20.03
2022-12-31T07:37:29.027Z,20.04
2022-12-31T07:40:00.873Z,20.01
2022-12-31T07:42:29.640Z,20.04
2022-12-31T07:45:02.087Z,20.07
2022-12-31T07:47:37.454Z,20.03
2022-12-31T07:50:05.790Z,19.99
2022-12-31T07:52:33.604Z,20.00
2022-12-31T07:55:01.366Z,20.01
2022-12-31T07:57:32.233Z,19.98
2022-12-31T08:00:04.629Z,19.98
2022-12-31T08:03:02.079Z,19.96
2022-12-31T08:05:32.784Z,19.97
2022-12-31T08:08:03.753Z,19.98
2022-12-31T08:10:34.205Z,19.93
2022-12-31T08:13:02.612Z,19.99
2022-12-31T08:15:30.892Z,20.00
2022-12-31T08:18:00.217Z,19.99
2022-12-31T08:20:27.702Z,20.01
2022-12-31T08:23:16.626Z,20.02
2022-12-31T08:25:53.552Z,19.92
2022-12-31T08:28:23.530Z,19.93
2022-12-31T08:30:54.681Z,19.84
2022-12-31T08:33:25.692Z,19.82
2022-12-31T08:36:01.209Z,19.76
2022-12-31T08:38:31.849Z,19.74
2022-12-31T08:41:02.330Z,19.72
2022-12-31T08:43:37.878Z,19.69
2022-12-31T08:46:05.619Z,19.66
2022-12-31T08:48:37.821Z,19.76
2022-12-31T08:51:06.388Z,19.87
2022-12-31T08:53:35.101Z,19.89
2022-12-31T08:56:08.497Z,19.93
2022-12-31T08:58:41.209Z,19.93
2022-12-31T09:01:11.319Z,19.92
2022-12-31T09:03:54.707Z,19.95
2022-12-31T09:06:27.286Z,19.95
2022-12-31T09:08:58.579Z,19.99
2022-12-31T09:11:29.378Z,20.01
2022-12-31T09:14:14.171Z,20.02
2022-12-31T09:16:46.605Z,20.00
2022-12-31T09:19:15.369Z,20.00
2022-12-31T09:21:45.730Z,19.99
2022-12-31T09:24:16.551Z,19.94
2022-12-31T09:26:53.095Z,19.97
2022-12-31T09:29:27.702Z,19.93
2022-12-31T09:31:57.373Z,19.88
2022-12-31T09:34:28.368Z,19.85
2022-12-31T09:37:03.656Z,19.83
2022-12-31T09:39:56.883Z,19.80
2022-12-31T09:42:56.888Z,19.83
2022-12-31T09:45:36.896Z,19.83
2022-12-31T09:48:24.324Z,19.80
2022-12-31T09:51:03.293Z,19.79
2022-12-31T09:53:50.169Z,19.78
2022-12-31T09:56:18.887Z,19.80
2022-12-31T09:58:48.980Z,19.82
2022-12-31T10:01:31.957Z,19.82
2022-12-31T10:04:07.542Z,19.82
2022-12-31T10:06:38.245Z,19.84
2022-12-31T10:09:32.874Z,19.84
2022-12-31T10:12:06.765Z,20.01
2022-12-31T10:14:47.569Z,20.05
2022-12-31T10:17:20.495Z,20.07
2022-12-31T10:20:09.252Z,20.07
2022-12-31T10:23:05.657Z,20.06
2022-12-31T10:25:40.039Z,20.09
2022-12-31T10:28:13.612Z,20.10
2022-12-31T10:30:45.599Z,20.09
2022-12-31T10:33:16.639Z,20.10
2022-12-31T10:35:44.664Z,20.11
2022-12-31T10:38:19.693Z,20.10
2022-12-31T10:41:11.582Z,20.12
2022-12-31T10:43:53.924Z,20.13
2022-12-31T10:46:40.783Z,20.11
2022-12-31T10:49:45.598Z,20.12
2022-12-31T10:52:27.174Z,20.11
2022-12-31T10:55:27.859Z,20.09
2022-12-31T10:58:04.812Z,20.10
2022-12-31T11:00:33.813Z,20.12
2022-12-31T11:03:32.115Z,20.11
2022-12-31T11:07:02.572Z,20.12
2022-12-31T11:09:57.231Z,20.12
2022-12-31T11:12:46.378Z,20.13
2022-12-31T11:15:19.273Z,20.13
2022-12-31T11:17:52.720Z,20.13
2022-12-31T11:20:34.883Z,20.14
2022-12-31T11:23:06.435Z,20.15
2022-12-31T11:25:38.362Z,20.13
2022-12-31T11:28:23.963Z,20.15
2022-12-31T11:31:00.698Z,20.16
2022-12-31T11:33:32.297Z,20.12
2022-12-31T11:36:08.334Z,20.15
2022-12-31T11:38:38.373Z,20.15
2022-12-31T11:41:06.810Z,20.16
2022-12-31T11:43:38.365Z,20.19
2022-12-31T11:46:17.837Z,20.19
2022-12-31T11:48:51.369Z,20.18
2022-12-31T11:51:32.882Z,20.15
2022-12-31T11:54:27.913Z,20.19
2022-12-31T11:57:00.050Z,20.19
2022-12-31T11:59:28.746Z,20.21
2022-12-31T12:01:56.911Z,20.26
2022-12-31T12:04:24.463Z,20.27
2022-12-31T12:06:51.897Z,20.26
2022-12-31T12:09:23.036Z,20.29
2022-12-31T12:11:58.764Z,20.28
2022-12-31T12:14:32.022Z,20.30
2022-12-31T12:17:04.733Z,20.30
2022-12-31T12:19:33.858Z,20.26
2022-12-31T12:22:10.313Z,20.32
2022-12-31T12:24:37.742Z,20.32
2022-12-31T12:27:05.229Z,20.32
2022-12-31T12:29:35.078Z,20.33
2022-12-31T12:32:03.469Z,20.34
2022-12-31T12:34:32.152Z,20.37
2022-12-31T12:36:59.599Z,20.38
2022-12-31T12:39:28.205Z,20.40
2022-12-31T12:42:03.568Z,20.40
2022-12-31T12:44:31.126Z,20.38
2022-12-31T12:46:59.891Z,20.37
2022-12-31T12:49:28.187Z,20.36
2022-12-31T12:52:08.620Z,20.33
2022-12-31T12:54:42.643Z,20.31
2022-12-31T12:57:14.773Z,20.33
2022-12-31T13:00:19.581Z,20.34
2022-12-31T13:03:12.488Z,20.33
2022-12-31T13:05:46.620Z,20.34
2022-12-31T13:08:20.469Z,20.34
2022-12-31T13:10:58.032Z,20.34
2022-12-31T13:13:29.039Z,20.34
2022-12-31T13:15:59.219Z,20.36
2022-12-31T13:18:36.964Z,20.37
2022-12-31T13:21:07.681Z,20.35
2022-12-31T13:23:39.854Z,20.37
2022-12-31T13:26:09.415Z,20.34
2022-12-31T13:28:38.883Z,20.35
2022-12-31T13:31:08.822Z,20.36
2022-12-31T13:33:39.269Z,20.37
2022-12-31T13:36:08.396Z,20.33
2022-12-31T13:38:36.870Z,20.34
2022-12-31T13:41:05.990Z,20.35
2022-12-31T13:43:37.696Z,20.37
2022-12-31T13:46:09.690Z,20.36
2022-12-31T13:48:41.480Z,20.35
2022-12-31T13:51:12.354Z,20.36
2022-12-31T13:53:42.743Z,20.38
2022-12-31T13:56:12.191Z,20.37
2022-12-31T13:58:42.347Z,20.36
2022-12-31T14:01:12.761Z,20.40
2022-12-31T14:03:45.098Z,20.36
2022-12-31T14:06:17.542Z,20.39
2022-12-31T14:08:44.978Z,20.38
2022-12-31T14:11:15.761Z,20.40
2022-12-31T14:13:54.182Z,20.40
2022-12-31T14:16:24.774Z,20.37
2022-12-31T14:18:58.124Z,20.37
2022-12-31T14:21:29.125Z,20.40
2022-12-31T14:24:00.000Z,20.38
2022-12-31T14:26:28.791Z,20.39
2022-12-31T14:29:03.651Z,20.40
2022-12-31T14:31:36.565Z,20.39
2022-12-31T14:34:07.523Z,20.40
2022-12-31T14:36:40.293Z,20.40
2022-12-31T14:39:30.143Z,20.41
2022-12-31T14:42:04.436Z,20.39
2022-12-31T14:44:43.125Z,20.41
2022-12-31T14:47:19.416Z,20.41
2022-12-31T14:49:51.652Z,20.41
2022-12-31T14:52:23.892Z,20.41
2022-12-31T14:54:59.066Z,20.42
2022-12-31T14:57:27.260Z,20.41
2022-12-31T14:59:55.631Z,20.41
2022-12-31T15:02:30.067Z,20.43
2022-12-31T15:05:10.949Z,20.43
2022-12-31T15:07:41.172Z,20.42
2022-12-31T15:10:13.812Z,20.45
2022-12-31T15:12:47.501Z,20.45
2022-12-31T15:15:24.051Z,20.43
2022-12-31T15:17:57.090Z,20.43
2022-12-31T15:20:34.757Z,20.42
2022-12-31T15:23:02.159Z,20.43
2022-12-31T15:25:35.204Z,20.45
2022-12-31T15:28:06.722Z,20.45
2022-12-31T15:30:36.980Z,20.45
2022-12-31T15:33:05.499Z,20.46
2022-12-31T15:35:45.207Z,20.43
2022-12-31T15:38:19.921Z,20.48
2022-12-31T15:40:47.918Z,20.38
2022-12-31T15:43:17.508Z,20.33
2022-12-31T15:45:48.096Z,20.27
2022-12-31T15:48:17.511Z,20.23
2022-12-31T15:50:46.516Z,20.25
2022-12-31T15:53:31.150Z,20.26
2022-12-31T15:55:59.532Z,20.26
2022-12-31T15:58:28.127Z,20.23
2022-12-31T16:01:00.266Z,20.21
2022-12-31T16:03:28.509Z,20.25
2022-12-31T16:06:00.027Z,20.24
2022-12-31T16:08:30.331Z,20.25
2022-12-31T16:10:57.738Z,20.26
2022-12-31T16:13:26.368Z,20.32
2022-12-31T16:15:54.815Z,20.34
2022-12-31T16:18:23.214Z,20.36
2022-12-31T16:20:51.809Z,20.31
2022-12-31T16:23:24.902Z,20.35
2022-12-31T16:25:52.466Z,20.37
2022-12-31T16:28:20.964Z,20.41
2022-12-31T16:30:55.198Z,20.56
2022-12-31T16:33:22.682Z,20.65
2022-12-31T16:35:55.502Z,20.71
2022-12-31T16:38:24.295Z,20.71
2022-12-31T16:41:07.685Z,20.79
2022-12-31T16:43:37.471Z,20.77
2022-12-31T16:46:09.564Z,20.78
2022-12-31T16:48:37.115Z,20.77
2022-12-31T16:52:31.213Z,20.73
2022-12-31T16:54:58.646Z,20.59
2022-12-31T16:57:26.867Z,20.55
2022-12-31T16:59:55.703Z,20.55
2022-12-31T17:02:23.932Z,20.47
2022-12-31T17:04:56.007Z,20.45
2022-12-31T17:07:26.040Z,20.43
2022-12-31T17:10:03.509Z,20.41
2022-12-31T17:12:46.845Z,20.45
2022-12-31T17:15:21.964Z,20.42
2022-12-31T17:17:51.552Z,20.46
2022-12-31T17:20:22.720Z,20.43
2022-12-31T17:22:50.204Z,20.44
2022-12-31T17:25:22.492Z,20.41
2022-12-31T17:27:53.392Z,20.41
2022-12-31T17:30:22.270Z,20.41
2022-12-31T17:32:51.724Z,20.54
2022-12-31T17:35:29.630Z,20.54
2022-12-31T17:38:18.255Z,20.59
2022-12-31T17:40:51.666Z,20.60
2022-12-31T17:43:19.553Z,20.51
2022-12-31T17:45:47.320Z,20.50
2022-12-31T17:48:15.366Z,20.51
2022-12-31T17:50:47.372Z,20.49
2022-12-31T17:53:14.860Z,20.46
2022-12-31T17:55:42.619Z,20.43
2022-12-31T17:58:15.533Z,20.45
2022-12-31T18:00:43.012Z,20.45
2022-12-31T18:03:10.582Z,20.41
2022-12-31T18:05:38.038Z,20.41
2022-12-31T18:08:05.964Z,20.39
2022-12-31T18:10:36.403Z,20.37
2022-12-31T18:13:04.718Z,20.37
2022-12-31T18:15:33.440Z,20.38
2022-12-31T18:18:00.863Z,20.36
2022-12-31T18:20:28.316Z,20.37
2022-12-31T18:22:56.903Z,20.35
2022-12-31T18:25:24.478Z,20.38
2022-12-31T18:27:52.141Z,20.39
2022-12-31T18:30:19.625Z,20.39
2022-12-31T18:32:48.544Z,20.39
2022-12-31T18:35:40.658Z,20.37
2022-12-31T18:38:04.405Z,20.39
2022-12-31T18:40:32.990Z,20.38
2022-12-31T18:43:04.869Z,20.36
2022-12-31T18:45:32.803Z,20.39
2022-12-31T18:48:01.538Z,20.37
2022-12-31T18:50:28.946Z,20.38
2022-12-31T18:52:56.355Z,20.38
2022-12-31T18:55:26.350Z,20.40
2022-12-31T18:57:53.809Z,20.37
2022-12-31T19:00:21.253Z,20.40
2022-12-31T19:02:48.739Z,20.38
2022-12-31T19:05:22.451Z,20.38
2022-12-31T19:07:49.864Z,20.39
2022-12-31T19:10:17.306Z,20.38
2022-12-31T19:12:44.886Z,20.36
2022-12-31T19:15:20.525Z,20.39
2022-12-31T19:17:47.978Z,20.42
2022-12-31T19:20:15.403Z,20.45
2022-12-31T19:22:44.139Z,20.52
2022-12-31T19:25:17.032Z,20.54
2022-12-31T19:27:44.497Z,20.55
2022-12-31T19:30:17.021Z,20.64
2022-12-31T19:32:44.475Z,20.65
2022-12-31T19:35:12.469Z,20.65
2022-12-31T19:37:39.895Z,20.64
2022-12-31T19:40:13.658Z,20.65
2022-12-31T19:42:41.087Z,20.65
2022-12-31T19:45:13.680Z,20.66
2022-12-31T19:47:41.125Z,20.67
2022-12-31T19:50:11.691Z,20.67
2022-12-31T19:52:39.130Z,20.70
2022-12-31T19:55:07.305Z,20.65
2022-12-31T19:57:36.025Z,20.69
2022-12-31T20:00:03.491Z,20.68
2022-12-31T20:02:39.300Z,20.67
2022-12-31T20:05:07.269Z,20.68
2022-12-31T20:07:34.726Z,20.74
2022-12-31T20:10:03.508Z,20.73
2022-12-31T20:12:30.987Z,20.75
2022-12-31T20:14:59.760Z,20.76
2022-12-31T20:17:27.250Z,20.75
2022-12-31T20:19:54.806Z,20.71
2022-12-31T20:22:22.302Z,20.76
2022-12-31T20:24:49.801Z,20.60
2022-12-31T20:27:18.696Z,20.72
2022-12-31T20:29:46.430Z,20.76
2022-12-31T20:32:15.152Z,20.74
2022-12-31T20:34:42.597Z,20.76
2022-12-31T20:37:10.036Z,20.76
2022-12-31T20:39:38.009Z,20.78
2022-12-31T20:42:05.547Z,20.74
2022-12-31T20:44:32.995Z,20.75
2022-12-31T20:47:00.476Z,20.75
2022-12-31T20:50:00.999Z,20.75
2022-12-31T20:52:16.714Z,20.76
2022-12-31T20:54:44.202Z,20.76
2022-12-31T20:57:11.652Z,20.79
2022-12-31T20:59:39.263Z,20.77
2022-12-31T21:02:24.363Z,20.76
2022-12-31T21:04:55.652Z,20.77
2022-12-31T21:07:23.222Z,20.79
2022-12-31T21:09:50.713Z,20.76
2022-12-31T21:12:35.692Z,20.75
2022-12-31T21:15:03.213Z,20.76
2022-12-31T21:17:30.664Z,20.77
2022-12-31T21:19:59.396Z,20.76
2022-12-31T21:22:26.855Z,20.74
2022-12-31T21:24:54.282Z,20.77
2022-12-31T21:27:21.820Z,20.76
2022-12-31T21:30:16.841Z,20.75
2022-12-31T21:32:36.681Z,20.74
2022-12-31T21:35:40.740Z,20.76
2022-12-31T21:37:58.788Z,20.77
2022-12-31T21:40:28.331Z,20.76
2022-12-31T21:42:55.754Z,20.76
2022-12-31T21:45:23.170Z,20.76
2022-12-31T21:48:08.210Z,20.74
2022-12-31T21:50:36.941Z,20.76
2022-12-31T21:53:04.393Z,20.77
2022-12-31T21:55:49.800Z,20.75
2022-12-31T21:58:26.525Z,20.76
2022-12-31T22:01:12.609Z,20.79
2022-12-31T22:03:40.272Z,20.76
2022-12-31T22:06:12.974Z,20.73
2022-12-31T22:08:40.705Z,20.76
2022-12-31T22:11:08.205Z,20.81
2022-12-31T22:13:35.661Z,20.75
2022-12-31T22:16:05.732Z,20.78
2022-12-31T22:18:35.264Z,20.76
2022-12-31T22:21:04.004Z,20.76
2022-12-31T22:23:32.918Z,20.77
2022-12-31T22:26:00.373Z,20.77
2022-12-31T22:28:38.048Z,20.79
2022-12-31T22:31:06.939Z,20.76
2022-12-31T22:33:34.350Z,20.79
2022-12-31T22:36:01.995Z,20.81
2022-12-31T22:38:29.619Z,20.78
2022-12-31T22:41:08.661Z,20.80
2022-12-31T22:43:36.789Z,20.80
2022-12-31T22:46:08.650Z,20.78
2022-12-31T22:48:36.175Z,20.78
2022-12-31T22:51:03.624Z,20.76
2022-12-31T22:53:31.045Z,20.79
2022-12-31T22:55:58.495Z,20.76
2022-12-31T22:58:27.219Z,20.81
2022-12-31T23:00:54.712Z,20.82
2022-12-31T23:03:22.236Z,20.81
2022-12-31T23:05:50.298Z,20.83
2022-12-31T23:08:23.366Z,20.85
2022-12-31T23:11:00.721Z,20.83
2022-12-31T23:13:50.452Z,20.83
2022-12-31T23:16:36.210Z,20.83
2022-12-31T23:19:21.330Z,20.88
2022-12-31T23:22:06.462Z,20.84
2022-12-31T23:24:33.882Z,20.83
2022-12-31T23:27:01.296Z,20.83
2022-12-31T23:29:30.003Z,20.82
2022-12-31T23:31:57.526Z,20.83
2022-12-31T23:34:24.982Z,20.84
2022-12-31T23:36:52.399Z,20.85
2022-12-31T23:39:19.919Z,20.82
2022-12-31T23:41:47.401Z,20.85
2022-12-31T23:44:14.871Z,20.82
2022-12-31T23:46:44.322Z,20.83
2022-12-31T23:49:11.962Z,20.82
2022-12-31T23:51:40.169Z,20.81
2022-12-31T23:54:07.839Z,20.81
2022-12-31T23:56:35.255Z,20.83
2022-12-31T23:59:02.755Z,20.82
